createdAt,value
2019-04-22T00:01:40.479Z,26.27
2019-04-22T00:04:30.227Z,26.83
2019-04-22T00:07:09.783Z,25.75
2019-04-22T00:09:48.138Z,25.52
2019-04-22T00:12:19.508Z,25.12
2019-04-22T00:14:42.522Z,25.50
2019-04-22T00:17:24.790Z,23.98
2019-04-22T00:20:02.493Z,24.40
2019-04-22T00:22:44.877Z,24.18
2019-04-22T00:25:01.384Z,23.07
2019-04-22T00:27:33.925Z,22.52
2019-04-22T00:32:30.462Z,21.12
2019-04-22T00:34:59.913Z,21.48
2019-04-22T00:37:35.739Z,20.77
2019-04-22T00:40:07.202Z,20.57
2019-04-22T00:42:41.358Z,20.95
2019-04-22T00:45:11.862Z,20.43
2019-04-22T00:47:39.952Z,21.73
2019-04-22T00:52:49.284Z,20.48
2019-04-22T00:55:23.117Z,20.67
2019-04-22T00:57:49.832Z,21.27
2019-04-22T01:00:17.646Z,20.37
2019-04-22T01:02:57.363Z,20.25
2019-04-22T01:05:21.727Z,18.32
2019-04-22T01:07:51.448Z,18.42
2019-04-22T01:10:27.486Z,19.17
2019-04-22T01:12:56.956Z,19.35
2019-04-22T01:15:30.503Z,18.95
2019-04-22T01:18:00.278Z,19.17
2019-04-22T01:20:54.519Z,18.85
2019-04-22T01:23:08.122Z,18.70
2019-04-22T01:25:34.502Z,19.02
2019-04-22T01:27:57.241Z,19.45
2019-04-22T01:30:24.406Z,19.32
2019-04-22T01:32:49.363Z,19.30
2019-04-22T01:35:28.632Z,19.65
2019-04-22T01:38:06.530Z,18.02
2019-04-22T01:40:45.531Z,18.77
2019-04-22T01:43:16.570Z,18.48
2019-04-22T01:45:50.670Z,17.90
2019-04-22T01:48:17.665Z,18.92
2019-04-22T01:50:50.189Z,18.10
2019-04-22T01:53:27.475Z,17.23
2019-04-22T01:55:59.087Z,17.92
2019-04-22T01:58:23.814Z,16.53
2019-04-22T02:01:18.557Z,17.70
2019-04-22T02:03:33.234Z,16.75
2019-04-22T02:06:02.431Z,16.60
2019-04-22T02:08:42.681Z,17.37
2019-04-22T02:11:00.965Z,16.30
2019-04-22T02:13:36.625Z,16.90
2019-04-22T02:16:05.683Z,17.27
2019-04-22T02:18:38.168Z,17.45
2019-04-22T02:21:08.958Z,16.15
2019-04-22T02:23:47.317Z,14.63
2019-04-22T02:26:32.603Z,14.23
2019-04-22T02:28:58.215Z,14.38
2019-04-22T02:31:25.584Z,13.95
2019-04-22T02:36:34.102Z,13.60
2019-04-22T02:41:26.325Z,15.58
2019-04-22T02:49:18.758Z,18.30
2019-04-22T02:51:36.567Z,17.67
2019-04-22T03:01:43.145Z,18.48
2019-04-22T03:04:12.921Z,17.75
2019-04-22T03:11:52.554Z,19.95
2019-04-22T03:14:16.405Z,20.23
2019-04-22T03:19:25.450Z,22.22
2019-04-22T03:21:48.125Z,24.53
2019-04-22T03:30:02.809Z,25.62
2019-04-22T03:32:40.319Z,27.55
2019-04-22T03:35:24.631Z,27.35
2019-04-22T03:42:15.575Z,29.65
2019-04-22T03:47:31.917Z,30.00
2019-04-22T03:52:20.412Z,29.50
2019-04-22T03:55:03.212Z,29.20
2019-04-22T04:00:08.319Z,29.30
2019-04-22T04:02:39.404Z,29.37
2019-04-22T04:04:58.757Z,30.27
2019-04-22T04:07:47.519Z,29.10
2019-04-22T04:15:28.428Z,28.67
2019-04-22T04:17:50.150Z,29.85
2019-04-22T04:20:26.266Z,30.75
2019-04-22T04:25:29.356Z,30.37
2019-04-22T04:28:22.945Z,29.65
2019-04-22T04:32:52.617Z,29.25
2019-04-22T04:35:46.183Z,30.32
2019-04-22T04:38:19.094Z,29.15
2019-04-22T04:42:58.470Z,30.82
2019-04-22T04:48:00.447Z,29.18
2019-04-22T04:50:39.942Z,29.87
2019-04-22T04:53:12.837Z,30.57
2019-04-22T04:55:35.141Z,31.57
2019-04-22T05:03:21.690Z,31.27
2019-04-22T05:06:01.345Z,30.25
2019-04-22T05:08:54.526Z,32.50
2019-04-22T05:13:43.159Z,29.67
2019-04-22T05:16:17.182Z,30.65
2019-04-22T05:18:37.417Z,30.50
2019-04-22T05:21:16.370Z,31.87
2019-04-22T05:23:41.946Z,30.75
2019-04-22T05:26:10.739Z,30.35
2019-04-22T05:28:35.103Z,28.17
2019-04-22T05:31:09.783Z,30.23
2019-04-22T05:33:42.572Z,29.15
2019-04-22T05:36:13.073Z,28.57
2019-04-22T05:38:49.307Z,27.70
2019-04-22T05:41:10.198Z,28.12
2019-04-22T05:43:42.639Z,27.45
2019-04-22T05:46:20.483Z,26.12
2019-04-22T05:48:43.975Z,26.05
2019-04-22T05:51:18.058Z,25.25
2019-04-22T05:53:48.212Z,24.80
2019-04-22T05:56:26.754Z,24.60
2019-04-22T05:58:58.816Z,23.60
2019-04-22T06:03:59.924Z,24.25
2019-04-22T06:06:33.982Z,22.73
2019-04-22T06:11:29.536Z,22.42
2019-04-22T06:14:02.626Z,21.67
2019-04-22T06:16:38.658Z,23.22
2019-04-22T06:19:07.443Z,21.97
2019-04-22T06:21:38.333Z,22.80
2019-04-22T06:24:18.510Z,20.40
2019-04-22T06:29:15.280Z,22.03
2019-04-22T06:32:13.271Z,22.77
2019-04-22T06:34:17.706Z,21.60
2019-04-22T06:36:55.438Z,22.05
2019-04-22T06:39:26.134Z,19.93
2019-04-22T06:44:23.825Z,17.62
2019-04-22T06:46:52.267Z,17.05
2019-04-22T06:52:04.210Z,15.93
2019-04-22T06:54:27.952Z,14.00
2019-04-22T06:56:59.715Z,13.72
2019-04-22T06:59:33.030Z,12.75
2019-04-22T07:02:06.450Z,12.40
2019-04-22T07:04:38.249Z,12.65
2019-04-22T07:07:08.329Z,10.85
2019-04-22T07:12:11.958Z,11.53
2019-04-22T07:14:45.912Z,11.03
2019-04-22T07:17:09.690Z,10.75
2019-04-22T07:19:45.412Z,10.78
2019-04-22T07:22:16.302Z,10.97
2019-04-22T07:24:46.317Z,10.45
2019-04-22T07:27:14.676Z,9.50
2019-04-22T07:29:58.138Z,9.93
2019-04-22T07:32:20.631Z,9.23
2019-04-22T07:35:01.032Z,9.28
2019-04-22T07:37:38.872Z,9.75
2019-04-22T07:39:56.603Z,9.90
2019-04-22T07:42:31.059Z,10.03
2019-04-22T07:45:03.871Z,11.65
2019-04-22T07:50:08.393Z,9.83
2019-04-22T07:52:35.135Z,9.90
2019-04-22T07:55:01.026Z,9.38
2019-04-22T07:57:41.356Z,9.40
2019-04-22T08:02:44.131Z,9.45
2019-04-22T08:05:22.812Z,9.30
2019-04-22T08:07:46.785Z,9.85
2019-04-22T08:10:24.335Z,10.43
2019-04-22T08:13:05.677Z,9.00
2019-04-22T08:15:20.093Z,9.65
2019-04-22T08:18:01.624Z,11.70
2019-04-22T08:20:22.661Z,15.03
2019-04-22T08:22:57.607Z,12.23
2019-04-22T08:25:27.097Z,10.98
2019-04-22T08:27:57.105Z,14.28
2019-04-22T08:33:04.410Z,8.43
2019-04-22T08:35:40.863Z,8.33
2019-04-22T08:38:01.475Z,9.00
2019-04-22T08:40:39.849Z,14.47
2019-04-22T08:43:14.074Z,11.15
2019-04-22T08:45:48.086Z,7.75
2019-04-22T08:48:07.979Z,8.28
2019-04-22T08:50:48.918Z,8.45
2019-04-22T08:53:14.195Z,8.00
2019-04-22T08:55:51.940Z,8.58
2019-04-22T09:00:52.914Z,8.10
2019-04-22T09:03:18.843Z,9.70
2019-04-22T09:08:26.295Z,9.30
2019-04-22T09:10:57.088Z,9.40
2019-04-22T09:13:33.454Z,10.43
2019-04-22T09:15:59.032Z,11.22
2019-04-22T09:18:28.517Z,11.88
2019-04-22T09:21:08.558Z,12.75
2019-04-22T09:23:38.751Z,12.60
2019-04-22T09:26:03.851Z,13.65
2019-04-22T09:28:37.741Z,13.50
2019-04-22T09:31:06.621Z,14.47
2019-04-22T09:33:38.254Z,15.00
2019-04-22T09:36:17.960Z,17.65
2019-04-22T09:41:15.219Z,19.05
2019-04-22T09:43:47.119Z,17.02
2019-04-22T09:46:14.822Z,84.60
2019-04-22T09:51:15.003Z,18.87
2019-04-22T09:53:57.545Z,17.30
2019-04-22T09:56:20.795Z,18.45
2019-04-22T09:58:53.583Z,19.82
2019-04-22T10:01:32.370Z,18.50
2019-04-22T10:06:30.907Z,20.97
2019-04-22T10:11:35.043Z,23.00
2019-04-22T10:14:12.368Z,20.27
2019-04-22T10:16:37.095Z,20.55
2019-04-22T10:19:09.574Z,20.88
2019-04-22T10:21:40.707Z,20.32
2019-04-22T10:24:10.138Z,20.85
2019-04-22T10:26:39.152Z,20.85
2019-04-22T10:29:13.670Z,20.62
2019-04-22T10:34:02.621Z,21.70
2019-04-22T10:36:17.732Z,24.57
2019-04-22T10:38:48.685Z,22.85
2019-04-22T10:41:18.662Z,29.92
2019-04-22T10:43:48.336Z,29.40
2019-04-22T10:46:18.151Z,29.72
2019-04-22T10:48:48.437Z,25.75
2019-04-22T10:51:19.004Z,24.52
2019-04-22T10:53:49.376Z,23.40
2019-04-22T10:56:19.138Z,21.85
2019-04-22T10:58:48.987Z,21.97
2019-04-22T11:01:18.757Z,22.30
2019-04-22T11:03:51.170Z,23.07
2019-04-22T11:06:21.354Z,22.87
2019-04-22T11:08:57.420Z,22.27
2019-04-22T11:11:34.824Z,21.73
2019-04-22T11:13:56.015Z,20.65
2019-04-22T11:16:25.957Z,21.45
2019-04-22T11:18:55.880Z,20.70
2019-04-22T11:21:25.623Z,20.40
2019-04-22T11:23:56.521Z,19.37
2019-04-22T11:26:26.227Z,21.03
2019-04-22T11:28:56.060Z,20.00
2019-04-22T11:31:26.471Z,20.47
2019-04-22T11:33:56.707Z,19.90
2019-04-22T11:36:29.155Z,19.47
2019-04-22T11:39:02.029Z,17.85
2019-04-22T11:41:29.567Z,18.48
2019-04-22T11:44:01.306Z,17.95
2019-04-22T11:46:31.516Z,18.60
2019-04-22T11:49:01.412Z,18.00
2019-04-22T11:51:31.990Z,18.17
2019-04-22T11:54:03.006Z,17.35
2019-04-22T11:56:34.734Z,16.40
2019-04-22T11:59:06.739Z,17.23
2019-04-22T12:01:38.756Z,16.85
2019-04-22T12:04:09.719Z,17.10
2019-04-22T12:06:40.113Z,16.23
2019-04-22T12:09:12.966Z,16.55
2019-04-22T12:11:44.332Z,15.70
2019-04-22T12:14:14.255Z,15.15
2019-04-22T12:16:45.431Z,14.85
2019-04-22T12:19:15.711Z,15.68
2019-04-22T12:21:46.753Z,15.63
2019-04-22T12:24:17.227Z,14.25
2019-04-22T12:26:48.384Z,14.75
2019-04-22T12:29:18.201Z,14.90
2019-04-22T12:31:49.351Z,14.70
2019-04-22T12:34:19.624Z,14.98
2019-04-22T12:36:50.753Z,14.70
2019-04-22T12:39:21.309Z,14.28
2019-04-22T12:41:52.153Z,16.17
2019-04-22T12:44:22.224Z,17.67
2019-04-22T12:46:52.311Z,13.88
2019-04-22T12:49:22.488Z,15.53
2019-04-22T12:51:52.440Z,14.60
2019-04-22T12:54:40.142Z,12.60
2019-04-22T12:57:10.424Z,11.53
2019-04-22T12:59:41.523Z,11.33
2019-04-22T13:02:11.553Z,11.93
2019-04-22T13:04:42.218Z,18.32
2019-04-22T13:07:13.281Z,12.00
2019-04-22T13:09:43.331Z,10.87
2019-04-22T13:12:13.187Z,8.70
2019-04-22T13:14:43.408Z,9.58
2019-04-22T13:17:15.249Z,10.35
2019-04-22T13:19:44.815Z,10.78
2019-04-22T13:22:14.930Z,6.67
2019-04-22T13:24:45.817Z,7.83
2019-04-22T13:27:17.114Z,9.38
2019-04-22T13:29:46.923Z,7.70
2019-04-22T13:32:16.686Z,56.42
2019-04-22T13:34:50.324Z,11.48
2019-04-22T13:37:19.151Z,8.43
2019-04-22T13:39:49.247Z,8.35
2019-04-22T13:42:21.519Z,9.83
2019-04-22T13:44:51.794Z,10.20
2019-04-22T13:47:38.515Z,8.35
2019-04-22T13:52:54.980Z,10.93
2019-04-22T13:55:23.892Z,10.03
2019-04-22T13:57:47.567Z,9.28
2019-04-22T14:00:02.781Z,12.85
2019-04-22T14:02:50.773Z,68.02
2019-04-22T14:05:28.622Z,7.28
2019-04-22T14:08:00.782Z,21.97
2019-04-22T14:10:32.150Z,5.80
2019-04-22T14:13:02.568Z,6.03
2019-04-22T14:15:33.975Z,9.70
2019-04-22T14:18:05.167Z,10.98
2019-04-22T14:20:36.612Z,8.23
2019-04-22T14:23:07.926Z,7.65
2019-04-22T14:25:38.704Z,8.80
2019-04-22T14:28:13.647Z,7.62
2019-04-22T14:30:39.807Z,9.05
2019-04-22T14:33:09.859Z,10.63
2019-04-22T14:35:41.339Z,9.73
2019-04-22T14:38:12.252Z,12.18
2019-04-22T14:40:43.531Z,15.72
2019-04-22T14:43:37.525Z,6.87
2019-04-22T14:46:14.546Z,5.87
2019-04-22T14:48:42.144Z,7.70
2019-04-22T14:51:09.048Z,4.58
2019-04-22T14:53:41.833Z,5.60
2019-04-22T14:55:50.539Z,6.75
2019-04-22T14:58:20.398Z,5.43
2019-04-22T15:00:51.919Z,9.60
2019-04-22T15:03:21.881Z,8.88
2019-04-22T15:05:54.426Z,5.30
2019-04-22T15:08:24.829Z,7.30
2019-04-22T15:10:55.836Z,6.10
2019-04-22T15:13:27.319Z,11.25
2019-04-22T15:16:11.881Z,10.80
2019-04-22T15:18:51.661Z,6.42
2019-04-22T15:21:23.239Z,5.72
2019-04-22T15:23:52.996Z,6.00
2019-04-22T15:26:24.339Z,6.47
2019-04-22T15:28:55.491Z,6.87
2019-04-22T15:31:25.230Z,6.28
2019-04-22T15:33:56.418Z,6.22
2019-04-22T15:36:26.280Z,6.47
2019-04-22T15:38:57.543Z,9.30
2019-04-22T15:41:28.554Z,13.50
2019-04-22T15:43:59.722Z,9.88
2019-04-22T15:46:29.824Z,9.28
2019-04-22T15:49:00.013Z,6.47
2019-04-22T15:51:30.849Z,9.35
2019-04-22T15:54:01.416Z,7.30
2019-04-22T15:56:32.566Z,9.08
2019-04-22T15:59:09.855Z,7.40
2019-04-22T16:01:37.396Z,11.20
2019-04-22T16:04:05.406Z,13.90
2019-04-22T16:06:35.134Z,13.67
2019-04-22T16:09:08.884Z,11.30
2019-04-22T16:11:40.184Z,11.73
2019-04-22T16:14:10.582Z,16.50
2019-04-22T16:16:40.701Z,16.62
2019-04-22T16:19:10.455Z,13.35
2019-04-22T16:21:47.972Z,16.23
2019-04-22T16:24:29.728Z,11.12
2019-04-22T16:27:02.458Z,32.73
2019-04-22T16:29:33.663Z,14.93
2019-04-22T16:32:03.518Z,12.63
2019-04-22T16:34:34.121Z,10.32
2019-04-22T16:37:05.003Z,11.75
2019-04-22T16:39:36.448Z,11.33
2019-04-22T16:42:08.936Z,16.07
2019-04-22T16:44:38.861Z,10.15
2019-04-22T16:47:09.842Z,11.22
2019-04-22T16:49:39.654Z,8.78
2019-04-22T16:52:10.013Z,13.28
2019-04-22T16:54:40.109Z,10.25
2019-04-22T16:57:10.205Z,11.95
2019-04-22T16:59:40.398Z,10.32
2019-04-22T17:02:12.891Z,11.78
2019-04-22T17:04:50.830Z,13.73
2019-04-22T17:07:22.245Z,11.85
2019-04-22T17:09:52.324Z,11.63
2019-04-22T17:12:22.030Z,11.57
2019-04-22T17:14:56.801Z,12.50
2019-04-22T17:17:24.424Z,13.38
2019-04-22T17:19:55.578Z,12.60
2019-04-22T17:22:25.969Z,26.45
2019-04-22T17:24:56.082Z,14.95
2019-04-22T17:27:26.611Z,12.47
2019-04-22T17:29:56.961Z,14.28
2019-04-22T17:32:28.741Z,17.50
2019-04-22T17:34:59.343Z,13.57
2019-04-22T17:37:32.069Z,13.43
2019-04-22T17:40:17.965Z,12.43
2019-04-22T17:42:49.466Z,9.20
2019-04-22T17:45:47.709Z,17.70
2019-04-22T17:48:31.224Z,13.93
2019-04-22T17:51:16.169Z,10.93
2019-04-22T17:53:46.901Z,10.55
2019-04-22T17:56:14.082Z,10.75
2019-04-22T17:58:47.869Z,14.10
2019-04-22T18:01:19.351Z,11.35
2019-04-22T18:03:33.740Z,15.60
2019-04-22T18:06:04.566Z,12.43
2019-04-22T18:08:50.722Z,11.63
2019-04-22T18:11:31.903Z,9.43
2019-04-22T18:14:00.274Z,11.95
2019-04-22T18:16:26.433Z,10.80
2019-04-22T18:19:00.536Z,10.03
2019-04-22T18:21:23.174Z,40.60
2019-04-22T18:23:49.591Z,19.35
2019-04-22T18:26:30.682Z,14.58
2019-04-22T18:29:02.463Z,10.08
2019-04-22T18:31:28.633Z,13.05
2019-04-22T18:34:00.456Z,11.40
2019-04-22T18:36:36.047Z,16.80
2019-04-22T18:39:16.258Z,14.20
2019-04-22T18:41:40.616Z,11.53
2019-04-22T18:44:11.488Z,11.55
2019-04-22T18:46:42.603Z,10.75
2019-04-22T18:49:11.231Z,12.95
2019-04-22T18:51:57.303Z,13.55
2019-04-22T18:54:56.994Z,12.05
2019-04-22T18:57:29.852Z,10.70
2019-04-22T18:59:47.314Z,10.60
2019-04-22T19:02:18.046Z,13.65
2019-04-22T19:04:59.205Z,11.47
2019-04-22T19:07:42.419Z,14.83
2019-04-22T19:10:17.275Z,26.57
2019-04-22T19:13:00.418Z,15.38
2019-04-22T19:15:22.744Z,11.88
2019-04-22T19:17:54.474Z,10.60
2019-04-22T19:20:24.036Z,11.50
2019-04-22T19:22:53.497Z,11.00
2019-04-22T19:25:11.683Z,12.13
2019-04-22T19:27:48.830Z,11.43
2019-04-22T19:30:22.305Z,11.63
2019-04-22T19:32:58.595Z,12.05
2019-04-22T19:35:22.266Z,11.70
2019-04-22T19:37:54.938Z,11.60
2019-04-22T19:40:53.103Z,11.40
2019-04-22T19:43:15.526Z,10.78
2019-04-22T19:45:40.128Z,12.25
2019-04-22T19:48:30.900Z,16.85
2019-04-22T19:51:01.486Z,13.13
2019-04-22T19:53:25.856Z,12.10
2019-04-22T19:55:49.862Z,12.37
2019-04-22T19:58:27.159Z,11.68
2019-04-22T20:01:16.142Z,20.52
2019-04-22T20:04:06.363Z,12.65
2019-04-22T20:06:27.165Z,11.20
2019-04-22T20:08:59.712Z,10.82
2019-04-22T20:11:35.179Z,12.00
2019-04-22T20:14:10.336Z,10.60
2019-04-22T20:16:32.435Z,10.72
2019-04-22T20:19:12.118Z,11.30
2019-04-22T20:21:43.519Z,10.63
2019-04-22T20:24:01.101Z,10.40
2019-04-22T20:26:45.674Z,9.83
2019-04-22T20:29:20.894Z,14.10
2019-04-22T20:31:45.171Z,12.00
2019-04-22T20:34:20.932Z,10.82
2019-04-22T20:37:01.836Z,10.78
2019-04-22T20:39:20.563Z,11.80
2019-04-22T20:41:49.123Z,10.90
2019-04-22T20:44:29.165Z,9.50
2019-04-22T20:46:57.386Z,10.60
2019-04-22T20:49:31.070Z,10.23
2019-04-22T20:52:24.065Z,9.78
2019-04-22T20:54:33.341Z,10.53
2019-04-22T20:56:54.997Z,11.48
2019-04-22T20:59:33.217Z,9.50
2019-04-22T21:02:01.970Z,9.83
2019-04-22T21:04:27.798Z,10.30
2019-04-22T21:07:05.094Z,8.95
2019-04-22T21:09:38.266Z,10.72
2019-04-22T21:12:05.116Z,10.70
2019-04-22T21:14:44.182Z,9.55
2019-04-22T21:17:13.505Z,9.75
2019-04-22T21:19:58.359Z,9.70
2019-04-22T21:22:22.420Z,9.13
2019-04-22T21:24:43.549Z,9.70
2019-04-22T21:27:23.191Z,14.68
2019-04-22T21:29:48.499Z,16.12
2019-04-22T21:32:28.232Z,10.35
2019-04-22T21:34:58.504Z,9.65
2019-04-22T21:37:26.449Z,9.78
2019-04-22T21:39:51.926Z,9.78
2019-04-22T21:42:31.495Z,10.27
2019-04-22T21:44:55.730Z,10.38
2019-04-22T21:47:40.381Z,10.08
2019-04-22T21:50:21.531Z,8.97
2019-04-22T21:52:35.304Z,9.33
2019-04-22T21:55:14.475Z,8.45
2019-04-22T21:57:39.992Z,8.63
2019-04-22T22:00:22.650Z,8.60
2019-04-22T22:02:47.178Z,8.70
2019-04-22T22:05:08.117Z,8.65
2019-04-22T22:07:29.022Z,7.90
2019-04-22T22:10:16.887Z,9.60
2019-04-22T22:12:52.455Z,8.80
2019-04-22T22:15:33.829Z,8.95
2019-04-22T22:18:00.954Z,8.70
2019-04-22T22:20:30.627Z,9.48
2019-04-22T22:23:09.188Z,8.63
2019-04-22T22:25:30.123Z,8.55
2019-04-22T22:28:08.899Z,8.80
2019-04-22T22:30:47.627Z,8.60
2019-04-22T22:33:10.446Z,11.30
2019-04-22T22:35:35.996Z,9.90
2019-04-22T22:38:13.422Z,11.50
2019-04-22T22:40:27.610Z,9.30
2019-04-22T22:42:55.414Z,8.68
2019-04-22T22:45:33.739Z,8.83
2019-04-22T22:48:21.870Z,8.10
2019-04-22T22:50:47.651Z,8.53
2019-04-22T22:53:28.756Z,8.75
2019-04-22T22:55:53.257Z,9.03
2019-04-22T22:58:22.246Z,9.03
2019-04-22T23:00:50.913Z,8.38
2019-04-22T23:03:45.594Z,8.33
2019-04-22T23:05:57.436Z,8.95
2019-04-22T23:08:34.100Z,8.85
2019-04-22T23:11:05.025Z,8.30
2019-04-22T23:13:33.173Z,8.70
2019-04-22T23:15:55.619Z,7.78
2019-04-22T23:18:14.019Z,7.85
2019-04-22T23:20:47.669Z,8.23
2019-04-22T23:26:06.948Z,8.98
2019-04-22T23:28:34.921Z,10.50
2019-04-22T23:31:09.457Z,9.78
2019-04-22T23:34:04.630Z,11.70
2019-04-22T23:36:31.793Z,10.03
2019-04-22T23:39:12.184Z,9.18
2019-04-22T23:41:51.206Z,11.05
2019-04-22T23:44:24.023Z,10.35
2019-04-22T23:46:44.017Z,8.70
2019-04-22T23:49:16.239Z,9.05
2019-04-22T23:51:55.538Z,9.17
2019-04-22T23:54:25.681Z,9.65
2019-04-22T23:56:46.995Z,8.73
2019-04-22T23:59:39.470Z,12.70
